Rashad Habib er pilot PDF Skriv ut E-post
Skrevet av Dmytro Yakovenko   
mandag 17. juli 2017 21:37

Rashad Habib fløy opp til PPL-A i dag, 17. juli 2017 med Hallgeir Olsen som kontrollant. Hovedinstruktør har vært Dmytro Yakovenko. En nesten to-timers tur i krevende forhold med byger og mye sidevind ble avsluttet med landingsrunder på Kjevik og kl. 16:00 ble årets første PPL-A sertifikat i regi av Kjevik flyklubb et faktum.

Skolen og klubben gratulerer Rashad med sertifikatet og ønsker lykke til med timesamling til CPL. Vi gratulerer også kontrollanten Hallgeir Olsen med hans første skill test i Kjevik flyklubb samt instruktøren Dmytro med første elev som har flydd opp til PPL-A.

 

Sist oppdatert mandag 17. juli 2017 21:51
 
 
METAR
2018/12/18 11:50 ENCN 181150Z 04010KT 9999 BKN021 00/M01 Q1021
TAF
2018/12/18 12:36 TAF TAF ENCN 181100Z 1812/1821 05005KT 9999 FEW012 BKN020 BECMG 1813/1815 BKN008 TEMPO 1813/1816 4000 -SN
LN-KFK
Operativ VFR-natt
VFR dag
08:19 - 16:29
Brannvakt
Inaktiv
Banner
Banner
Banner
Banner
Banner